Time;durP1;ratioP1;P1;durP2;ratioP2;P2;SDS_P1;SDS_P2;PMS_P1;PMS_P2;Temp;Humidity;BMP_temperature;BMP_pressure;BME280_temperature;BME280_humidity;BME280_pressure;Samples;Min_cycle;Max_cycle;Signal;HPM_P1;HPM_P2
2023/05/17 00:00:16;;;;;;;25.10;4.25;;;6.00;99.90;;;;;;5093083;28;20044;-26
2023/05/17 00:02:42;;;;;;;24.55;4.72;;;6.20;99.90;;;;;;5094043;28;20052;-27
2023/05/17 00:05:10;;;;;;;21.15;3.53;;;6.20;99.90;;;;;;5094438;28;20113;-27
2023/05/17 00:07:36;;;;;;;31.75;5.68;;;6.20;99.90;;;;;;5093010;28;20101;-27
2023/05/17 00:10:02;;;;;;;24.73;4.72;;;6.20;99.90;;;;;;5093909;28;20051;-27
2023/05/17 00:12:28;;;;;;;21.88;4.15;;;6.20;99.90;;;;;;5093933;28;20119;-27
2023/05/17 00:14:53;;;;;;;17.95;3.05;;;6.20;99.90;;;;;;5093922;28;20490;-27
2023/05/17 00:17:19;;;;;;;17.10;3.33;;;6.20;99.90;;;;;;5093875;28;20067;-27
2023/05/17 00:19:45;;;;;;;19.48;3.53;;;6.20;99.90;;;;;;5093755;28;20501;-27
2023/05/17 00:22:10;;;;;;;21.15;3.25;;;6.20;99.90;;;;;;5093766;28;20051;-27
2023/05/17 00:24:36;;;;;;;28.75;4.00;;;6.40;99.90;;;;;;5093761;28;20051;-27
2023/05/17 00:27:02;;;;;;;20.48;5.03;;;6.40;99.90;;;;;;5093592;28;20127;-27
2023/05/17 00:29:27;;;;;;;20.30;4.15;;;6.60;99.90;;;;;;5092730;28;20058;-27
2023/05/17 00:31:53;;;;;;;27.52;5.03;;;6.80;99.90;;;;;;5094207;28;20047;-27
2023/05/17 00:34:19;;;;;;;16.70;4.13;;;6.80;99.90;;;;;;5093303;28;20076;-27
2023/05/17 00:36:45;;;;;;;24.98;3.80;;;7.00;99.90;;;;;;5093597;28;20036;-27
2023/05/17 00:39:10;;;;;;;20.15;3.60;;;7.20;99.90;;;;;;5093387;28;20056;-26
2023/05/17 00:41:36;;;;;;;20.35;3.80;;;7.30;99.90;;;;;;5093600;28;20090;-27
2023/05/17 00:44:02;;;;;;;25.60;4.82;;;7.40;99.90;;;;;;5094051;28;20082;-27
2023/05/17 00:46:27;;;;;;;18.30;3.05;;;7.40;99.90;;;;;;5093419;28;20083;-27
2023/05/17 00:48:53;;;;;;;18.42;3.10;;;7.40;99.90;;;;;;5093455;28;20044;-27
2023/05/17 00:51:20;;;;;;;26.55;4.38;;;7.50;99.90;;;;;;5093497;28;20070;-27
2023/05/17 00:53:46;;;;;;;17.77;3.00;;;7.30;99.90;;;;;;5058745;28;20041;-27
2023/05/17 00:56:12;;;;;;;14.48;2.58;;;7.30;99.90;;;;;;5092832;28;20036;-27
2023/05/17 00:58:39;;;;;;;19.77;3.28;;;7.40;99.90;;;;;;5093741;28;20131;-27
2023/05/17 01:01:05;;;;;;;18.25;3.10;;;7.40;99.90;;;;;;5093419;28;20122;-27
2023/05/17 01:03:31;;;;;;;11.77;2.72;;;7.50;99.90;;;;;;5093467;28;20056;-27
2023/05/17 01:05:57;;;;;;;17.48;2.38;;;7.60;99.90;;;;;;5093264;28;20051;-27
2023/05/17 01:08:23;;;;;;;20.13;2.42;;;7.70;99.90;;;;;;5094676;28;20105;-27
2023/05/17 01:11:24;;;;;;;15.40;2.50;;;7.60;99.90;;;;;;5097773;28;20370;-27
2023/05/17 01:14:08;;;;;;;14.65;2.28;;;7.50;98.00;;;;;;5098137;28;20135;-27
2023/05/17 01:16:55;;;;;;;15.20;2.63;;;7.40;99.90;;;;;;5096968;28;20502;-27
2023/05/17 01:19:57;;;;;;;11.85;2.10;;;7.30;99.90;;;;;;5097155;28;20077;-26
2023/05/17 01:22:39;;;;;;;14.88;2.75;;;7.40;99.90;;;;;;5097935;28;20047;-27
2023/05/17 01:25:26;;;;;;;27.67;3.30;;;7.50;99.90;;;;;;5095570;28;20040;-26
2023/05/17 01:27:56;;;;;;;14.80;3.25;;;7.50;99.90;;;;;;5096905;28;20040;-27
2023/05/17 01:30:24;;;;;;;17.92;2.40;;;7.50;99.90;;;;;;5097468;28;20406;-26
2023/05/17 01:32:52;;;;;;;17.27;2.67;;;7.50;99.90;;;;;;5097375;28;20127;-27
2023/05/17 01:35:17;;;;;;;17.13;2.17;;;7.40;99.90;;;;;;5096849;28;20052;-26
2023/05/17 01:37:43;;;;;;;10.75;2.45;;;7.30;99.90;;;;;;5096874;28;20518;-27
2023/05/17 01:40:10;;;;;;;15.82;2.33;;;7.20;99.90;;;;;;5097266;28;20048;-28
2023/05/17 01:42:39;;;;;;;13.98;2.42;;;7.10;99.90;;;;;;5096275;28;20466;-27
2023/05/17 01:45:23;;;;;;;16.73;2.92;;;7.10;99.90;;;;;;5095611;28;20451;-26
2023/05/17 01:47:54;;;;;;;11.90;2.35;;;7.00;99.90;;;;;;5096474;28;20048;-27
2023/05/17 01:50:24;;;;;;;19.10;2.65;;;7.00;99.90;;;;;;5078959;28;20048;-27
2023/05/17 01:52:54;;;;;;;17.48;2.13;;;7.00;99.90;;;;;;5096451;28;20051;-27
2023/05/17 01:55:55;;;;;;;10.77;2.33;;;6.90;86.70;;;;;;5096419;28;20122;-26
2023/05/17 01:58:24;;;;;;;12.13;2.08;;;6.80;82.60;;;;;;5053502;28;20131;-27
2023/05/17 02:00:54;;;;;;;19.98;1.65;;;6.70;85.40;;;;;;5096327;28;20040;-27
2023/05/17 02:03:21;;;;;;;13.18;2.60;;;6.70;81.80;;;;;;5095317;28;20052;-27
2023/05/17 02:05:46;;;;;;;11.70;2.10;;;6.80;94.30;;;;;;5096228;28;20164;-27
2023/05/17 02:08:12;;;;;;;16.08;2.75;;;6.90;99.90;;;;;;5096202;28;20060;-27
2023/05/17 02:10:38;;;;;;;12.20;1.95;;;6.90;99.90;;;;;;5095878;28;20502;-27
2023/05/17 02:13:04;;;;;;;14.65;3.15;;;7.00;99.90;;;;;;5096385;28;20074;-27
2023/05/17 02:15:31;;;;;;;16.83;2.03;;;6.90;99.90;;;;;;5095360;28;20048;-27
2023/05/17 02:17:56;;;;;;;13.82;3.30;;;6.90;99.90;;;;;;5096539;28;20097;-27
2023/05/17 02:20:22;;;;;;;16.67;2.33;;;7.00;99.90;;;;;;5094703;28;20398;-27
2023/05/17 02:22:48;;;;;;;17.13;2.30;;;7.10;99.90;;;;;;5096451;28;20044;-27
2023/05/17 02:25:14;;;;;;;17.70;2.13;;;7.30;99.90;;;;;;5095914;28;20051;-27
2023/05/17 02:27:39;;;;;;;18.17;3.15;;;7.30;99.90;;;;;;5094862;28;20048;-26
2023/05/17 02:30:06;;;;;;;10.50;2.55;;;7.40;99.90;;;;;;5094494;28;20044;-27
2023/05/17 02:32:32;;;;;;;15.40;2.28;;;7.40;99.90;;;;;;5094753;28;20475;-27
2023/05/17 02:34:58;;;;;;;23.63;3.30;;;7.40;99.90;;;;;;5095651;28;20094;-28
2023/05/17 02:37:24;;;;;;;20.95;3.10;;;7.50;99.90;;;;;;5094419;28;20083;-27
2023/05/17 02:39:50;;;;;;;18.13;3.40;;;7.50;99.90;;;;;;5094877;28;20063;-27
2023/05/17 02:42:16;;;;;;;11.15;2.28;;;7.50;99.90;;;;;;5094522;28;20047;-27
2023/05/17 02:44:42;;;;;;;18.60;2.63;;;7.60;99.90;;;;;;5095445;28;20471;-27
2023/05/17 02:47:08;;;;;;;18.25;2.40;;;7.60;99.90;;;;;;5094894;28;20044;-27
2023/05/17 02:49:33;;;;;;;14.43;2.25;;;7.60;90.50;;;;;;5095408;28;20054;-27
2023/05/17 02:51:59;;;;;;;12.45;2.22;;;7.50;1.00;;;;;;5095308;28;20097;-27
2023/05/17 02:54:25;;;;;;;12.93;2.00;;;7.40;1.00;;;;;;5094937;28;20131;-27
2023/05/17 02:56:51;;;;;;;14.77;2.33;;;7.20;1.00;;;;;;5095746;28;20036;-27
2023/05/17 02:59:17;;;;;;;17.13;2.55;;;7.20;1.00;;;;;;5095460;28;20123;-27
2023/05/17 03:01:42;;;;;;;11.93;1.85;;;7.10;1.00;;;;;;5095114;28;20507;-27
2023/05/17 03:04:08;;;;;;;13.48;3.47;;;7.00;1.00;;;;;;5077300;28;20055;-27
2023/05/17 03:06:34;;;;;;;10.82;1.60;;;6.90;1.00;;;;;;5093731;28;20470;-27
2023/05/17 03:08:59;;;;;;;13.30;3.08;;;6.80;1.00;;;;;;5095036;28;20044;-26
2023/05/17 03:11:25;;;;;;;16.23;2.00;;;6.80;1.00;;;;;;5094966;28;20101;-28
2023/05/17 03:13:51;;;;;;;10.85;2.10;;;6.60;1.00;;;;;;5094908;28;20047;-27
2023/05/17 03:16:17;;;;;;;15.45;1.90;;;6.60;1.00;;;;;;5094811;28;20036;-27
2023/05/17 03:18:43;;;;;;;11.68;2.28;;;6.70;1.00;;;;;;5094813;28;20059;-27
2023/05/17 03:21:09;;;;;;;11.30;2.20;;;6.80;1.00;;;;;;5093796;28;20055;-27
2023/05/17 03:23:35;;;;;;;11.52;1.88;;;6.90;99.90;;;;;;5095538;28;20047;-27
2023/05/17 03:26:00;;;;;;;13.80;1.45;;;7.10;99.90;;;;;;5094542;28;20531;-27
2023/05/17 03:28:26;;;;;;;10.52;1.42;;;7.20;37.10;;;;;;5094686;28;20081;-27
2023/05/17 03:30:52;;;;;;;10.32;2.17;;;7.20;1.00;;;;;;5093507;28;20048;-27
2023/05/17 03:33:18;;;;;;;9.02;1.60;;;7.30;1.00;;;;;;5094845;28;20048;-27
2023/05/17 03:35:45;;;;;;;5.00;0.98;;;7.40;1.00;;;;;;5094455;28;20048;-27
2023/05/17 03:38:12;;;;;;;7.50;1.38;;;7.30;1.00;;;;;;5095302;28;20059;-27
2023/05/17 03:40:37;;;;;;;5.80;0.90;;;7.40;1.00;;;;;;5093459;28;20051;-27
2023/05/17 03:43:03;;;;;;;10.65;2.55;;;7.40;1.00;;;;;;5095159;28;20104;-27
2023/05/17 03:45:29;;;;;;;13.40;2.03;;;7.40;1.00;;;;;;5094189;28;20471;-26
2023/05/17 03:47:55;;;;;;;12.75;1.30;;;7.40;1.00;;;;;;5094191;28;20048;-27
2023/05/17 03:50:21;;;;;;;11.30;1.95;;;7.40;1.00;;;;;;5093561;28;20054;-27
2023/05/17 03:52:47;;;;;;;14.13;1.85;;;7.50;1.00;;;;;;5093109;28;20130;-27
2023/05/17 03:55:13;;;;;;;13.80;2.35;;;7.50;1.00;;;;;;5094273;28;20118;-28
2023/05/17 03:57:39;;;;;;;10.93;1.30;;;7.40;99.90;;;;;;5093937;28;20036;-27
2023/05/17 04:00:10;;;;;;;10.65;1.25;;;7.30;99.90;;;;;;5093953;28;20048;-27
2023/05/17 04:02:36;;;;;;;14.10;2.65;;;7.30;99.90;;;;;;5094912;28;20123;-26
2023/05/17 04:05:02;;;;;;;5.90;1.15;;;7.40;9.00;;;;;;5093819;28;20558;-28
2023/05/17 04:07:27;;;;;;;8.90;1.00;;;7.30;1.00;;;;;;5093867;28;20094;-27
2023/05/17 04:09:57;;;;;;;9.57;1.92;;;7.30;1.00;;;;;;5093886;28;20044;-28
2023/05/17 04:12:23;;;;;;;8.35;1.60;;;7.30;1.00;;;;;;5093962;28;20044;-27
2023/05/17 04:14:49;;;;;;;10.10;1.48;;;7.30;1.00;;;;;;5093992;28;20082;-27
2023/05/17 04:17:15;;;;;;;9.55;1.13;;;7.30;1.00;;;;;;5092549;28;20044;-27
2023/05/17 04:19:40;;;;;;;11.55;1.92;;;7.30;1.00;;;;;;5093678;28;20054;-27
2023/05/17 04:22:06;;;;;;;15.98;2.58;;;7.30;1.00;;;;;;5093029;28;20051;-27
2023/05/17 04:24:32;;;;;;;10.18;1.63;;;7.30;23.70;;;;;;5094279;28;20468;-27
2023/05/17 04:26:58;;;;;;;10.50;1.80;;;7.30;60.60;;;;;;5093517;28;20048;-28
2023/05/17 04:29:24;;;;;;;7.15;0.85;;;7.40;1.00;;;;;;5093616;28;20052;-26
2023/05/17 04:31:50;;;;;;;10.75;1.30;;;7.40;1.00;;;;;;5094136;28;20383;-27
2023/05/17 04:34:15;;;;;;;11.88;1.30;;;7.40;1.00;;;;;;5094080;28;20086;-26
2023/05/17 04:36:41;;;;;;;8.90;1.27;;;7.50;1.00;;;;;;5093602;28;20180;-27
2023/05/17 04:39:07;;;;;;;12.70;1.23;;;7.50;1.00;;;;;;5092090;28;20060;-27
2023/05/17 04:41:32;;;;;;;9.85;1.20;;;7.50;1.00;;;;;;5094496;28;20475;-27
2023/05/17 04:43:58;;;;;;;10.15;1.13;;;7.50;99.90;;;;;;5097679;28;20052;-27
2023/05/17 04:46:24;;;;;;;12.15;2.28;;;7.60;99.90;;;;;;5097822;28;20044;-27
2023/05/17 04:48:50;;;;;;;13.13;1.42;;;7.70;99.90;;;;;;5097634;28;20557;-27
2023/05/17 04:51:15;;;;;;;7.88;1.50;;;7.80;99.90;;;;;;5097490;28;20135;-27
2023/05/17 04:53:41;;;;;;;10.30;1.77;;;7.90;55.00;;;;;;5097493;28;20044;-28
2023/05/17 04:56:07;;;;;;;6.95;1.05;;;8.00;1.00;;;;;;5096135;28;20040;-28
2023/05/17 04:58:32;;;;;;;11.70;1.88;;;8.00;1.00;;;;;;5097450;28;20393;-27
2023/05/17 05:00:58;;;;;;;8.10;1.00;;;8.00;99.90;;;;;;5096393;28;20048;-29
2023/05/17 05:03:25;;;;;;;8.35;1.00;;;8.00;99.90;;;;;;5096216;28;20043;-27
2023/05/17 05:05:50;;;;;;;10.63;1.48;;;8.00;99.90;;;;;;5097140;28;20143;-26
2023/05/17 05:08:16;;;;;;;10.20;1.05;;;8.00;99.90;;;;;;5096950;28;20138;-27
2023/05/17 05:10:42;;;;;;;9.13;1.73;;;8.00;98.60;;;;;;5079180;28;20048;-28
2023/05/17 05:13:07;;;;;;;9.05;1.23;;;8.00;99.90;;;;;;5097042;28;20055;-28
2023/05/17 05:15:33;;;;;;;13.15;1.48;;;8.10;99.90;;;;;;5096796;28;20044;-27
2023/05/17 05:17:59;;;;;;;11.60;2.17;;;8.10;99.90;;;;;;5097045;28;20088;-27
2023/05/17 05:20:25;;;;;;;7.78;1.13;;;8.10;27.90;;;;;;5097887;28;20051;-27
2023/05/17 05:22:51;;;;;;;9.45;1.55;;;8.20;96.40;;;;;;5097309;28;20537;-27
2023/05/17 05:25:16;;;;;;;12.93;3.03;;;8.30;99.90;;;;;;5095868;28;20090;-27
2023/05/17 05:27:42;;;;;;;13.15;3.40;;;8.40;90.50;;;;;;5095862;28;20079;-27
2023/05/17 05:30:08;;;;;;;10.57;2.03;;;8.60;1.00;;;;;;5096858;28;20056;-27
2023/05/17 05:32:36;;;;;;;16.63;2.30;;;8.80;1.00;;;;;;5095876;28;20135;-27
2023/05/17 05:35:04;;;;;;;12.05;2.03;;;8.90;99.90;;;;;;5079115;28;20048;-27
2023/05/17 05:37:30;;;;;;;20.20;3.03;;;9.10;99.90;;;;;;5096569;28;20048;-27
2023/05/17 05:39:56;;;;;;;16.33;2.60;;;9.40;1.00;;;;;;5097115;28;20109;-27
2023/05/17 05:42:22;;;;;;;12.05;2.80;;;9.50;1.00;;;;;;5097260;28;20044;-27
2023/05/17 05:44:47;;;;;;;18.20;2.33;;;9.50;1.00;;;;;;5097272;28;20048;-27
2023/05/17 05:47:13;;;;;;;16.83;2.00;;;9.90;1.00;;;;;;5096863;28;20466;-27
2023/05/17 05:49:39;;;;;;;9.10;1.45;;;10.10;99.90;;;;;;5097088;28;20055;-28
2023/05/17 05:52:05;;;;;;;16.58;2.15;;;9.80;99.90;;;;;;5096384;28;20471;-27
2023/05/17 05:54:30;;;;;;;11.05;2.20;;;9.80;1.00;;;;;;5095781;28;20052;-27
2023/05/17 05:56:56;;;;;;;13.75;1.92;;;9.70;40.60;;;;;;5078596;28;20044;-27
2023/05/17 05:59:22;;;;;;;18.85;2.72;;;9.50;1.00;;;;;;5095773;28;20071;-27
2023/05/17 06:01:47;;;;;;;13.07;1.92;;;9.30;99.90;;;;;;5096295;28;20047;-27
2023/05/17 06:04:13;;;;;;;13.57;2.15;;;9.30;1.00;;;;;;5095919;28;20055;-27
2023/05/17 06:06:39;;;;;;;11.27;2.22;;;9.10;99.90;;;;;;5096088;28;20067;-28
2023/05/17 06:09:06;;;;;;;6.85;1.98;;;9.10;99.90;;;;;;5096659;28;20084;-27
2023/05/17 06:11:32;;;;;;;14.65;2.20;;;8.90;1.00;;;;;;5096087;28;20051;-28
2023/05/17 06:13:57;;;;;;;14.85;2.22;;;8.90;1.00;;;;;;5094755;28;20044;-27
2023/05/17 06:16:23;;;;;;;16.00;1.90;;;9.00;1.00;;;;;;5078940;28;20055;-28
2023/05/17 06:18:49;;;;;;;11.70;2.40;;;9.10;99.90;;;;;;5095997;28;20047;-27
2023/05/17 06:21:16;;;;;;;13.75;2.53;;;9.10;1.00;;;;;;5095513;28;20464;-27
2023/05/17 06:23:42;;;;;;;15.18;2.53;;;9.00;99.90;;;;;;5094783;28;20050;-28
2023/05/17 06:26:09;;;;;;;10.27;2.05;;;8.90;1.00;;;;;;5094500;28;20048;-27
2023/05/17 06:28:35;;;;;;;18.80;2.50;;;9.00;99.90;;;;;;5096049;28;20059;-28
2023/05/17 06:31:01;;;;;;;11.90;2.22;;;9.00;1.00;;;;;;5095531;28;20080;-28
2023/05/17 06:33:27;;;;;;;11.15;2.53;;;9.10;1.00;;;;;;5096162;28;20079;-27
2023/05/17 06:35:55;;;;;;;12.88;2.00;;;9.30;99.90;;;;;;5095632;28;20040;-27
2023/05/17 06:38:21;;;;;;;16.40;2.35;;;9.40;99.90;;;;;;5077444;28;20521;-27
2023/05/17 06:40:51;;;;;;;12.48;2.80;;;9.40;99.90;;;;;;5095522;28;20048;-27
2023/05/17 06:43:16;;;;;;;9.10;1.70;;;9.50;99.90;;;;;;5078203;28;20612;-28
2023/05/17 06:45:42;;;;;;;15.57;2.33;;;9.50;14.30;;;;;;5094130;28;20131;-27
2023/05/17 06:48:08;;;;;;;20.55;3.13;;;9.40;1.00;;;;;;5094086;28;20044;-27
2023/05/17 06:50:34;;;;;;;15.00;1.92;;;9.70;99.90;;;;;;5095395;28;20066;-27
2023/05/17 06:53:00;;;;;;;13.25;2.50;;;10.70;99.90;;;;;;5094265;28;20056;-29
2023/05/17 06:55:26;;;;;;;14.80;3.38;;;11.20;99.90;;;;;;5094026;28;20079;-27
2023/05/17 06:57:52;;;;;;;14.20;2.20;;;11.30;1.00;;;;;;5095213;28;20127;-28
2023/05/17 07:00:18;;;;;;;15.95;2.15;;;11.10;99.90;;;;;;5095994;28;20048;-27
2023/05/17 07:02:43;;;;;;;15.20;2.55;;;11.00;99.90;;;;;;5095124;28;20040;-27
2023/05/17 07:05:09;;;;;;;12.18;2.90;;;10.70;99.90;;;;;;5094475;28;20097;-27
2023/05/17 07:07:35;;;;;;;14.40;2.20;;;10.70;99.90;;;;;;5094945;28;20047;-29
2023/05/17 07:10:00;;;;;;;10.57;2.20;;;10.70;99.90;;;;;;5095435;28;20050;-29
2023/05/17 07:12:26;;;;;;;11.13;1.70;;;10.90;99.90;;;;;;5093945;28;20044;-28
2023/05/17 07:14:52;;;;;;;17.40;2.50;;;10.90;1.00;;;;;;5095155;28;20051;-27
2023/05/17 07:17:17;;;;;;;13.13;2.30;;;10.80;99.90;;;;;;5094702;28;20501;-27
2023/05/17 07:19:43;;;;;;;14.52;2.20;;;10.70;99.90;;;;;;5093515;28;20055;-27
2023/05/17 07:22:09;;;;;;;18.98;2.63;;;10.70;1.00;;;;;;5094781;28;20063;-27
2023/05/17 07:24:34;;;;;;;12.40;2.10;;;10.90;99.90;;;;;;5093687;28;20545;-28
2023/05/17 07:27:00;;;;;;;15.60;2.47;;;11.10;99.90;;;;;;5059903;28;20520;-28
2023/05/17 07:29:26;;;;;;;15.55;2.55;;;11.30;1.00;;;;;;5076499;28;20399;-28
2023/05/17 07:31:52;;;;;;;16.90;2.70;;;11.10;99.90;;;;;;5094573;28;20048;-28
2023/05/17 07:34:17;;;;;;;14.50;1.50;;;11.60;1.00;;;;;;5094767;28;20130;-28
2023/05/17 07:36:43;;;;;;;11.38;2.75;;;12.00;99.90;;;;;;5094445;28;20036;-28
2023/05/17 07:39:09;;;;;;;11.27;2.50;;;12.50;99.90;;;;;;5094296;28;20055;-27
2023/05/17 07:41:35;;;;;;;15.98;2.40;;;12.20;99.90;;;;;;5094643;28;20083;-27
2023/05/17 07:44:01;;;;;;;11.52;2.08;;;12.90;99.90;;;;;;5076576;28;20047;-27
2023/05/17 07:46:27;;;;;;;15.02;1.77;;;13.10;99.90;;;;;;5094179;28;20475;-28
2023/05/17 07:48:52;;;;;;;11.77;1.92;;;12.40;99.90;;;;;;5094247;28;20048;-27
2023/05/17 07:51:18;;;;;;;11.73;2.08;;;11.60;99.90;;;;;;5092941;28;20117;-27
2023/05/17 07:53:44;;;;;;;17.15;2.50;;;11.60;99.90;;;;;;5094469;28;20052;-28
2023/05/17 07:56:10;;;;;;;14.10;2.53;;;11.50;1.00;;;;;;5094087;28;20040;-28
2023/05/17 07:58:36;;;;;;;14.52;2.88;;;11.30;1.00;;;;;;5094062;28;20051;-27
2023/05/17 08:01:01;;;;;;;24.25;3.03;;;11.10;48.80;;;;;;5094340;28;20402;-28
2023/05/17 08:03:27;;;;;;;16.45;3.60;;;10.90;99.90;;;;;;5094028;28;20502;-27
2023/05/17 08:05:53;;;;;;;12.50;2.83;;;10.80;99.90;;;;;;5094122;28;20459;-27
2023/05/17 08:08:19;;;;;;;12.18;2.40;;;11.00;99.90;;;;;;5093854;28;20040;-27
2023/05/17 08:10:45;;;;;;;10.18;2.38;;;10.90;99.90;;;;;;5093902;28;20091;-27
2023/05/17 08:13:11;;;;;;;13.18;2.22;;;11.10;99.90;;;;;;5094370;28;20048;-28
2023/05/17 08:15:37;;;;;;;13.75;2.70;;;10.90;99.90;;;;;;5094630;28;20166;-28
2023/05/17 08:18:03;;;;;;;11.65;2.50;;;11.20;25.20;;;;;;5093142;28;20495;-27
2023/05/17 08:20:28;;;;;;;9.15;1.80;;;11.60;1.00;;;;;;5093753;28;20052;-28
2023/05/17 08:22:55;;;;;;;11.57;2.10;;;12.50;99.90;;;;;;5092672;28;20475;-27
2023/05/17 08:25:20;;;;;;;12.68;2.17;;;12.30;4.80;;;;;;5092455;28;20076;-27
2023/05/17 08:27:46;;;;;;;12.00;2.53;;;12.30;80.70;;;;;;5093744;28;20086;-28
2023/05/17 08:30:12;;;;;;;9.40;2.17;;;12.10;99.90;;;;;;5093486;28;20048;-27
2023/05/17 08:32:37;;;;;;;5.03;1.20;;;12.00;89.40;;;;;;5093576;28;20047;-27
2023/05/17 08:35:04;;;;;;;11.35;2.28;;;12.30;57.00;;;;;;5094225;28;20048;-28
2023/05/17 08:37:30;;;;;;;10.48;1.50;;;12.80;1.00;;;;;;5093624;28;20056;-28
2023/05/17 08:39:56;;;;;;;10.73;1.67;;;13.00;1.00;;;;;;5094094;28;20372;-27
2023/05/17 08:42:24;;;;;;;10.18;1.60;;;13.00;1.00;;;;;;5093649;28;20126;-27
2023/05/17 08:44:50;;;;;;;11.10;1.67;;;12.30;1.00;;;;;;5094127;28;20410;-29
2023/05/17 08:47:25;;;;;;;11.70;2.15;;;11.80;1.00;;;;;;5093517;28;20444;-27
2023/05/17 08:49:56;;;;;;;15.57;2.35;;;12.00;99.90;;;;;;5093573;28;20044;-27
2023/05/17 08:52:22;;;;;;;13.75;1.67;;;12.50;99.90;;;;;;5093538;28;20052;-27
2023/05/17 08:54:48;;;;;;;14.10;2.67;;;12.30;94.90;;;;;;5093412;28;20131;-27
2023/05/17 08:57:16;;;;;;;12.55;1.60;;;11.50;21.20;;;;;;5092405;28;20150;-27
2023/05/17 08:59:43;;;;;;;7.32;1.45;;;11.10;99.90;;;;;;5092414;28;20048;-27
2023/05/17 09:02:10;;;;;;;6.82;1.45;;;11.10;99.90;;;;;;5092387;28;20503;-28
2023/05/17 09:04:36;;;;;;;13.07;2.35;;;11.60;99.90;;;;;;5093193;28;20039;-27
2023/05/17 09:07:02;;;;;;;8.52;1.83;;;12.20;99.90;;;;;;5092096;28;20044;-27
2023/05/17 09:09:27;;;;;;;5.35;1.52;;;13.10;1.00;;;;;;5093899;28;20043;-28
2023/05/17 09:11:54;;;;;;;7.22;1.20;;;13.20;1.00;;;;;;5093548;28;20067;-28
2023/05/17 09:14:19;;;;;;;11.40;1.58;;;12.70;99.90;;;;;;5093277;28;20084;-27
2023/05/17 09:16:45;;;;;;;9.23;1.80;;;12.20;1.00;;;;;;5092229;28;20140;-27
2023/05/17 09:19:16;;;;;;;6.72;0.98;;;13.10;1.00;;;;;;5093178;28;20055;-28
2023/05/17 09:21:47;;;;;;;8.40;1.63;;;14.60;99.90;;;;;;5093169;28;20371;-28
2023/05/17 09:24:13;;;;;;;11.00;1.60;;;15.30;99.90;;;;;;5093278;28;20044;-27
2023/05/17 09:26:44;;;;;;;8.25;1.70;;;15.30;99.90;;;;;;5093488;28;20043;-28
2023/05/17 09:29:10;;;;;;;9.38;1.63;;;16.50;99.90;;;;;;5094632;28;20044;-27
2023/05/17 09:31:37;;;;;;;9.52;1.90;;;16.10;99.90;;;;;;5095838;28;20052;-28
2023/05/17 09:34:02;;;;;;;8.00;1.30;;;15.00;99.90;;;;;;5096745;28;20044;-28
2023/05/17 09:36:28;;;;;;;11.55;1.65;;;14.50;99.90;;;;;;5097479;28;20044;-28
2023/05/17 09:39:00;;;;;;;11.88;1.55;;;14.40;99.90;;;;;;5095461;28;20056;-29
2023/05/17 09:41:39;;;;;;;11.35;1.88;;;14.20;99.90;;;;;;5097245;28;20475;-27
2023/05/17 09:44:08;;;;;;;8.25;1.42;;;13.80;99.90;;;;;;5096667;28;20087;-29
2023/05/17 09:46:35;;;;;;;9.93;2.53;;;13.60;99.90;;;;;;5095359;28;20058;-28
2023/05/17 09:49:02;;;;;;;10.82;2.22;;;13.50;99.90;;;;;;5095272;28;20048;-28
2023/05/17 09:51:38;;;;;;;9.98;1.77;;;12.60;99.90;;;;;;5099894;28;20090;-26
2023/05/17 09:54:06;;;;;;;9.07;1.65;;;12.50;99.90;;;;;;5109537;28;20043;-28
2023/05/17 09:56:33;;;;;;;9.40;1.83;;;12.40;1.00;;;;;;5112184;28;20078;-28
2023/05/17 09:59:09;;;;;;;6.30;1.40;;;12.30;1.00;;;;;;5116658;28;20043;-28
2023/05/17 10:01:37;;;;;;;7.53;1.10;;;12.70;1.00;;;;;;5116750;28;20047;-27
2023/05/17 10:04:03;;;;;;;8.25;1.90;;;13.20;99.90;;;;;;5115988;28;20055;-27
2023/05/17 10:06:32;;;;;;;9.57;2.17;;;13.20;99.90;;;;;;5116412;28;20044;-28
2023/05/17 10:09:01;;;;;;;7.05;1.95;;;13.60;99.90;;;;;;5115596;28;20090;-27
2023/05/17 10:11:32;;;;;;;10.77;1.92;;;13.60;99.90;;;;;;5117360;28;20055;-27
2023/05/17 10:14:06;;;;;;;8.25;1.23;;;14.10;99.90;;;;;;5117071;28;20076;-28
2023/05/17 10:16:37;;;;;;;8.80;1.48;;;14.60;99.90;;;;;;5116491;28;20095;-29
2023/05/17 10:19:03;;;;;;;9.95;1.40;;;14.80;99.90;;;;;;5098979;28;20039;-27
2023/05/17 10:21:32;;;;;;;8.18;1.60;;;14.50;99.90;;;;;;5097913;28;20058;-28
2023/05/17 10:24:01;;;;;;;8.90;1.92;;;14.60;99.90;;;;;;5115370;28;20055;-28
2023/05/17 10:26:28;;;;;;;10.27;1.90;;;14.30;99.90;;;;;;5116895;28;20177;-28
2023/05/17 10:29:01;;;;;;;10.35;2.05;;;13.90;99.90;;;;;;5115725;28;20044;-27
2023/05/17 10:31:32;;;;;;;10.70;1.55;;;13.90;99.90;;;;;;5115960;28;20481;-27
2023/05/17 10:34:02;;;;;;;11.60;1.90;;;13.90;99.90;;;;;;5116020;28;20394;-28
2023/05/17 10:36:28;;;;;;;11.65;1.70;;;13.60;99.90;;;;;;5116251;28;20394;-28
2023/05/17 10:38:55;;;;;;;8.68;1.52;;;13.40;99.90;;;;;;5115766;28;20520;-28
2023/05/17 10:41:24;;;;;;;7.45;1.63;;;13.30;1.00;;;;;;5115625;28;20130;-27
2023/05/17 10:43:52;;;;;;;10.57;1.77;;;13.10;99.90;;;;;;5116099;28;20483;-27
2023/05/17 10:46:21;;;;;;;9.93;2.05;;;13.60;99.90;;;;;;5115753;28;20043;-28
2023/05/17 10:48:51;;;;;;;11.02;3.03;;;13.90;99.90;;;;;;5115774;27;20089;-28
2023/05/17 10:51:28;;;;;;;10.40;1.98;;;13.60;99.90;;;;;;5098512;28;20078;-28
2023/05/17 10:54:20;;;;;;;12.52;1.92;;;13.30;99.90;;;;;;5115775;28;20042;-28
2023/05/17 10:56:52;;;;;;;7.70;1.50;;;12.70;99.90;;;;;;5114935;28;20471;-28
2023/05/17 10:59:23;;;;;;;7.85;1.92;;;12.70;99.90;;;;;;5114715;28;20386;-28
2023/05/17 11:02:06;;;;;;;12.60;1.65;;;13.50;1.00;;;;;;5116431;28;20040;-28
2023/05/17 11:04:51;;;;;;;8.48;1.58;;;14.90;99.90;;;;;;5115508;28;20135;-29
2023/05/17 11:07:26;;;;;;;11.60;2.53;;;15.20;99.90;;;;;;5115712;28;20039;-28
2023/05/17 11:10:06;;;;;;;8.80;1.70;;;15.40;99.90;;;;;;5116019;28;20047;-28
2023/05/17 11:12:40;;;;;;;8.63;1.70;;;14.30;99.90;;;;;;5115290;28;20056;-28
2023/05/17 11:15:16;;;;;;;8.98;1.50;;;14.70;99.90;;;;;;5115376;28;20046;-28
2023/05/17 11:17:42;;;;;;;7.63;1.40;;;15.10;99.90;;;;;;5115193;28;20111;-28
2023/05/17 11:20:15;;;;;;;8.45;1.73;;;14.50;99.90;;;;;;5115435;28;20052;-28
2023/05/17 11:22:57;;;;;;;9.75;2.00;;;14.40;99.90;;;;;;5115693;28;20087;-29
2023/05/17 11:25:23;;;;;;;9.47;2.33;;;14.40;99.90;;;;;;5097194;28;20474;-28
2023/05/17 11:27:51;;;;;;;7.05;1.67;;;14.20;99.90;;;;;;5114005;28;20513;-27
2023/05/17 11:30:27;;;;;;;10.27;1.60;;;13.90;99.90;;;;;;5113769;28;20402;-30
2023/05/17 11:33:00;;;;;;;7.07;1.33;;;14.10;99.90;;;;;;5115532;28;20044;-28
2023/05/17 11:35:30;;;;;;;7.70;1.42;;;13.90;99.90;;;;;;5114839;28;20039;-28
2023/05/17 11:38:33;;;;;;;7.97;1.58;;;13.90;99.90;;;;;;5115424;28;20047;-28
2023/05/17 11:41:21;;;;;;;7.32;1.33;;;15.00;99.90;;;;;;5072356;28;20056;-28
2023/05/17 11:43:48;;;;;;;11.82;1.75;;;16.20;99.90;;;;;;5112635;28;20481;-28
2023/05/17 11:46:19;;;;;;;5.32;1.25;;;15.60;99.90;;;;;;5113370;28;20036;-28
2023/05/17 11:48:46;;;;;;;9.50;1.45;;;14.90;99.90;;;;;;5114254;28;20641;-28
2023/05/17 11:51:15;;;;;;;9.02;1.77;;;14.80;99.90;;;;;;5114001;28;20398;-28
2023/05/17 11:53:42;;;;;;;8.15;1.40;;;15.70;99.90;;;;;;5115136;28;20086;-28
2023/05/17 11:56:09;;;;;;;11.32;3.10;;;16.10;99.90;;;;;;5113301;28;20047;-28
2023/05/17 11:58:36;;;;;;;8.48;2.17;;;15.80;99.90;;;;;;5114487;28;20055;-28
2023/05/17 12:01:03;;;;;;;10.98;1.88;;;15.20;99.90;;;;;;5114489;28;20044;-28
2023/05/17 12:03:30;;;;;;;8.77;1.95;;;14.90;99.90;;;;;;5113193;28;20070;-28
2023/05/17 12:06:03;;;;;;;10.35;1.90;;;15.00;99.90;;;;;;5079737;28;20036;-28
2023/05/17 12:08:31;;;;;;;8.10;1.73;;;15.40;99.90;;;;;;5113282;28;20048;-27
2023/05/17 12:10:57;;;;;;;9.80;1.58;;;15.50;99.90;;;;;;5113231;28;20104;-28
2023/05/17 12:13:22;;;;;;;5.90;1.50;;;16.30;99.90;;;;;;5114198;28;20043;-27
2023/05/17 12:15:55;;;;;;;7.55;1.70;;;15.90;99.90;;;;;;5113955;28;20051;-28
2023/05/17 12:18:21;;;;;;;;;;;15.30;99.90;;;;;;5114644;28;20100;-28
2023/05/17 12:20:56;;;;;;;7.93;1.13;;;14.70;99.90;;;;;;5114405;28;19923;-28
2023/05/17 12:23:38;;;;;;;5.28;1.38;;;14.40;99.90;;;;;;5114093;28;20134;-28
2023/05/17 12:26:15;;;;;;;9.00;1.60;;;15.20;99.90;;;;;;5113254;28;20385;-28
2023/05/17 12:28:42;;;;;;;7.10;1.40;;;14.00;99.90;;;;;;5112924;28;20047;-28
2023/05/17 12:31:15;;;;;;;8.75;2.00;;;14.30;99.90;;;;;;5114060;28;20058;-29
2023/05/17 12:33:43;;;;;;;6.78;1.42;;;14.50;99.90;;;;;;5114410;28;20050;-29
2023/05/17 12:36:10;;;;;;;6.22;1.50;;;15.20;99.90;;;;;;5112773;28;20040;-29
2023/05/17 12:38:39;;;;;;;5.25;1.30;;;16.00;99.90;;;;;;5113889;28;20126;-28
2023/05/17 12:41:08;;;;;;;5.80;1.35;;;16.20;99.90;;;;;;5114013;28;20043;-29
2023/05/17 12:43:35;;;;;;;10.05;2.10;;;16.00;99.90;;;;;;5113887;28;20466;-28
2023/05/17 12:46:10;;;;;;;9.85;1.80;;;15.10;97.50;;;;;;5113817;28;20043;-29
2023/05/17 12:48:40;;;;;;;9.32;1.85;;;15.20;99.90;;;;;;5112679;28;20086;-28
2023/05/17 12:51:11;;;;;;;9.13;1.58;;;15.40;99.90;;;;;;5113787;28;20051;-28